sensor_id;sensor_type;location;lat;lon;timestamp;P1;durP1;ratioP1;P2;durP2;ratioP2
70558;SDS011;58108;48.094;11.838;2023-08-24T00:01:31;10.20;;;8.17;;
70558;SDS011;58108;48.094;11.838;2023-08-24T00:03:56;12.53;;;8.23;;
70558;SDS011;58108;48.094;11.838;2023-08-24T00:06:22;10.30;;;8.20;;
70558;SDS011;58108;48.094;11.838;2023-08-24T00:08:47;11.70;;;8.77;;
70558;SDS011;58108;48.094;11.838;2023-08-24T00:11:12;11.73;;;8.63;;
70558;SDS011;58108;48.094;11.838;2023-08-24T00:13:43;12.10;;;8.33;;
70558;SDS011;58108;48.094;11.838;2023-08-24T00:16:13;11.13;;;8.50;;
70558;SDS011;58108;48.094;11.838;2023-08-24T00:18:38;11.57;;;8.47;;
70558;SDS011;58108;48.094;11.838;2023-08-24T00:21:04;12.53;;;8.80;;
70558;SDS011;58108;48.094;11.838;2023-08-24T00:23:29;13.37;;;8.93;;
70558;SDS011;58108;48.094;11.838;2023-08-24T00:25:54;12.30;;;9.00;;
70558;SDS011;58108;48.094;11.838;2023-08-24T00:28:19;11.67;;;8.40;;
70558;SDS011;58108;48.094;11.838;2023-08-24T00:30:45;11.68;;;9.02;;
70558;SDS011;58108;48.094;11.838;2023-08-24T00:33:10;12.73;;;8.30;;
70558;SDS011;58108;48.094;11.838;2023-08-24T00:35:35;11.03;;;7.63;;
70558;SDS011;58108;48.094;11.838;2023-08-24T00:38:00;10.07;;;7.77;;
70558;SDS011;58108;48.094;11.838;2023-08-24T00:40:26;13.13;;;8.87;;
70558;SDS011;58108;48.094;11.838;2023-08-24T00:42:51;12.50;;;9.20;;
70558;SDS011;58108;48.094;11.838;2023-08-24T00:45:17;15.47;;;9.50;;
70558;SDS011;58108;48.094;11.838;2023-08-24T00:47:43;15.82;;;9.20;;
70558;SDS011;58108;48.094;11.838;2023-08-24T00:50:10;11.10;;;8.55;;
70558;SDS011;58108;48.094;11.838;2023-08-24T00:52:35;11.80;;;8.60;;
70558;SDS011;58108;48.094;11.838;2023-08-24T00:55:02;12.80;;;8.65;;
70558;SDS011;58108;48.094;11.838;2023-08-24T00:57:27;14.03;;;9.13;;
70558;SDS011;58108;48.094;11.838;2023-08-24T00:59:53;12.82;;;9.18;;
70558;SDS011;58108;48.094;11.838;2023-08-24T01:02:18;12.77;;;9.10;;
70558;SDS011;58108;48.094;11.838;2023-08-24T01:04:44;12.37;;;9.07;;
70558;SDS011;58108;48.094;11.838;2023-08-24T01:07:11;11.18;;;8.48;;
70558;SDS011;58108;48.094;11.838;2023-08-24T01:09:37;13.33;;;8.97;;
70558;SDS011;58108;48.094;11.838;2023-08-24T01:17:31;13.87;;;8.80;;
70558;SDS011;58108;48.094;11.838;2023-08-24T01:19:57;15.07;;;8.82;;
70558;SDS011;58108;48.094;11.838;2023-08-24T01:27:20;12.17;;;8.63;;
70558;SDS011;58108;48.094;11.838;2023-08-24T01:29:46;13.50;;;9.10;;
70558;SDS011;58108;48.094;11.838;2023-08-24T01:32:11;11.35;;;8.23;;
70558;SDS011;58108;48.094;11.838;2023-08-24T01:34:37;11.60;;;8.67;;
70558;SDS011;58108;48.094;11.838;2023-08-24T01:37:03;13.85;;;9.45;;
70558;SDS011;58108;48.094;11.838;2023-08-24T01:39:29;13.77;;;9.77;;
70558;SDS011;58108;48.094;11.838;2023-08-24T01:41:59;13.60;;;9.83;;
70558;SDS011;58108;48.094;11.838;2023-08-24T01:44:25;14.13;;;10.18;;
70558;SDS011;58108;48.094;11.838;2023-08-24T01:46:52;13.57;;;9.82;;
70558;SDS011;58108;48.094;11.838;2023-08-24T01:49:18;15.45;;;9.80;;
70558;SDS011;58108;48.094;11.838;2023-08-24T01:51:43;13.33;;;9.90;;
70558;SDS011;58108;48.094;11.838;2023-08-24T01:54:09;14.03;;;10.63;;
70558;SDS011;58108;48.094;11.838;2023-08-24T01:56:34;16.77;;;10.77;;
70558;SDS011;58108;48.094;11.838;2023-08-24T01:58:59;13.63;;;9.53;;
70558;SDS011;58108;48.094;11.838;2023-08-24T02:01:25;13.50;;;9.30;;
70558;SDS011;58108;48.094;11.838;2023-08-24T02:03:50;13.83;;;9.60;;
70558;SDS011;58108;48.094;11.838;2023-08-24T02:06:15;13.65;;;9.50;;
70558;SDS011;58108;48.094;11.838;2023-08-24T02:08:40;12.05;;;9.30;;
70558;SDS011;58108;48.094;11.838;2023-08-24T02:11:06;11.93;;;8.67;;
70558;SDS011;58108;48.094;11.838;2023-08-24T02:13:32;11.65;;;8.88;;
70558;SDS011;58108;48.094;11.838;2023-08-24T02:16:00;16.97;;;9.20;;
70558;SDS011;58108;48.094;11.838;2023-08-24T02:18:26;11.83;;;8.70;;
70558;SDS011;58108;48.094;11.838;2023-08-24T02:20:51;14.40;;;9.40;;
70558;SDS011;58108;48.094;11.838;2023-08-24T02:23:16;13.20;;;9.13;;
70558;SDS011;58108;48.094;11.838;2023-08-24T02:25:41;13.27;;;9.20;;
70558;SDS011;58108;48.094;11.838;2023-08-24T02:28:07;14.00;;;9.77;;
70558;SDS011;58108;48.094;11.838;2023-08-24T02:30:32;13.53;;;10.20;;
70558;SDS011;58108;48.094;11.838;2023-08-24T02:32:57;13.80;;;9.57;;
70558;SDS011;58108;48.094;11.838;2023-08-24T02:35:22;14.33;;;9.07;;
70558;SDS011;58108;48.094;11.838;2023-08-24T02:37:47;17.70;;;10.17;;
70558;SDS011;58108;48.094;11.838;2023-08-24T02:40:14;12.98;;;9.57;;
70558;SDS011;58108;48.094;11.838;2023-08-24T02:42:39;12.17;;;9.47;;
70558;SDS011;58108;48.094;11.838;2023-08-24T02:45:04;15.05;;;9.50;;
70558;SDS011;58108;48.094;11.838;2023-08-24T02:47:30;12.53;;;9.80;;
70558;SDS011;58108;48.094;11.838;2023-08-24T02:49:55;12.97;;;8.83;;
70558;SDS011;58108;48.094;11.838;2023-08-24T02:52:20;13.57;;;9.40;;
70558;SDS011;58108;48.094;11.838;2023-08-24T02:54:45;12.40;;;9.10;;
70558;SDS011;58108;48.094;11.838;2023-08-24T02:57:10;13.30;;;9.40;;
70558;SDS011;58108;48.094;11.838;2023-08-24T02:59:35;16.83;;;10.50;;
70558;SDS011;58108;48.094;11.838;2023-08-24T03:02:01;13.07;;;9.30;;
70558;SDS011;58108;48.094;11.838;2023-08-24T03:04:26;11.93;;;9.00;;
70558;SDS011;58108;48.094;11.838;2023-08-24T03:06:51;13.07;;;9.40;;
70558;SDS011;58108;48.094;11.838;2023-08-24T03:09:16;10.67;;;8.10;;
70558;SDS011;58108;48.094;11.838;2023-08-24T03:11:42;11.50;;;8.60;;
70558;SDS011;58108;48.094;11.838;2023-08-24T03:14:07;14.00;;;9.50;;
70558;SDS011;58108;48.094;11.838;2023-08-24T03:16:33;15.23;;;10.00;;
70558;SDS011;58108;48.094;11.838;2023-08-24T03:18:58;14.90;;;9.70;;
70558;SDS011;58108;48.094;11.838;2023-08-24T03:21:23;14.83;;;10.00;;
70558;SDS011;58108;48.094;11.838;2023-08-24T03:23:48;14.60;;;10.23;;
70558;SDS011;58108;48.094;11.838;2023-08-24T03:26:14;14.13;;;10.17;;
70558;SDS011;58108;48.094;11.838;2023-08-24T03:28:40;14.18;;;9.70;;
70558;SDS011;58108;48.094;11.838;2023-08-24T03:31:06;13.73;;;9.50;;
70558;SDS011;58108;48.094;11.838;2023-08-24T03:33:31;17.13;;;10.33;;
70558;SDS011;58108;48.094;11.838;2023-08-24T03:35:58;14.45;;;9.98;;
70558;SDS011;58108;48.094;11.838;2023-08-24T03:38:23;15.03;;;10.17;;
70558;SDS011;58108;48.094;11.838;2023-08-24T03:40:48;15.33;;;10.03;;
70558;SDS011;58108;48.094;11.838;2023-08-24T03:43:13;16.07;;;10.37;;
70558;SDS011;58108;48.094;11.838;2023-08-24T03:45:38;12.10;;;9.73;;
70558;SDS011;58108;48.094;11.838;2023-08-24T03:48:04;12.10;;;9.10;;
70558;SDS011;58108;48.094;11.838;2023-08-24T03:50:29;11.77;;;9.43;;
70558;SDS011;58108;48.094;11.838;2023-08-24T03:52:54;15.63;;;10.33;;
70558;SDS011;58108;48.094;11.838;2023-08-24T03:55:20;15.37;;;10.70;;
70558;SDS011;58108;48.094;11.838;2023-08-24T03:57:45;15.23;;;10.87;;
70558;SDS011;58108;48.094;11.838;2023-08-24T04:00:11;16.95;;;10.65;;
70558;SDS011;58108;48.094;11.838;2023-08-24T04:02:37;13.83;;;9.97;;
70558;SDS011;58108;48.094;11.838;2023-08-24T04:05:03;15.27;;;10.98;;
70558;SDS011;58108;48.094;11.838;2023-08-24T04:07:28;16.67;;;10.87;;
70558;SDS011;58108;48.094;11.838;2023-08-24T04:09:53;16.03;;;10.83;;
70558;SDS011;58108;48.094;11.838;2023-08-24T04:12:18;14.67;;;10.67;;
70558;SDS011;58108;48.094;11.838;2023-08-24T04:14:43;15.47;;;10.83;;
70558;SDS011;58108;48.094;11.838;2023-08-24T04:17:08;13.70;;;10.63;;
70558;SDS011;58108;48.094;11.838;2023-08-24T04:19:35;13.33;;;10.07;;
70558;SDS011;58108;48.094;11.838;2023-08-24T04:22:02;15.23;;;9.57;;
70558;SDS011;58108;48.094;11.838;2023-08-24T04:24:27;13.75;;;9.60;;
70558;SDS011;58108;48.094;11.838;2023-08-24T04:26:52;15.13;;;9.80;;
70558;SDS011;58108;48.094;11.838;2023-08-24T04:29:17;14.10;;;10.20;;
70558;SDS011;58108;48.094;11.838;2023-08-24T04:31:43;14.55;;;8.70;;
70558;SDS011;58108;48.094;11.838;2023-08-24T04:34:08;11.67;;;9.07;;
70558;SDS011;58108;48.094;11.838;2023-08-24T04:36:34;13.03;;;9.10;;
70558;SDS011;58108;48.094;11.838;2023-08-24T04:38:59;14.00;;;9.93;;
70558;SDS011;58108;48.094;11.838;2023-08-24T04:41:24;14.30;;;9.40;;
70558;SDS011;58108;48.094;11.838;2023-08-24T04:43:49;15.43;;;9.80;;
70558;SDS011;58108;48.094;11.838;2023-08-24T04:46:15;15.07;;;9.90;;
70558;SDS011;58108;48.094;11.838;2023-08-24T04:48:40;15.97;;;9.87;;
70558;SDS011;58108;48.094;11.838;2023-08-24T04:51:05;13.38;;;9.93;;
70558;SDS011;58108;48.094;11.838;2023-08-24T04:53:30;11.80;;;9.23;;
70558;SDS011;58108;48.094;11.838;2023-08-24T04:55:55;13.00;;;9.50;;
70558;SDS011;58108;48.094;11.838;2023-08-24T04:58:21;14.30;;;9.90;;
70558;SDS011;58108;48.094;11.838;2023-08-24T05:00:46;12.43;;;9.37;;
70558;SDS011;58108;48.094;11.838;2023-08-24T05:03:11;15.40;;;9.67;;
70558;SDS011;58108;48.094;11.838;2023-08-24T05:05:37;13.57;;;9.80;;
70558;SDS011;58108;48.094;11.838;2023-08-24T05:08:03;14.60;;;10.02;;
70558;SDS011;58108;48.094;11.838;2023-08-24T05:10:31;13.07;;;9.40;;
70558;SDS011;58108;48.094;11.838;2023-08-24T05:12:57;13.17;;;9.77;;
70558;SDS011;58108;48.094;11.838;2023-08-24T05:15:22;11.83;;;9.43;;
70558;SDS011;58108;48.094;11.838;2023-08-24T05:17:47;13.67;;;9.33;;
70558;SDS011;58108;48.094;11.838;2023-08-24T05:20:13;12.93;;;9.20;;
70558;SDS011;58108;48.094;11.838;2023-08-24T05:22:38;13.60;;;9.43;;
70558;SDS011;58108;48.094;11.838;2023-08-24T05:25:04;12.65;;;9.52;;
70558;SDS011;58108;48.094;11.838;2023-08-24T05:27:32;13.40;;;9.35;;
70558;SDS011;58108;48.094;11.838;2023-08-24T05:29:57;13.70;;;9.57;;
70558;SDS011;58108;48.094;11.838;2023-08-24T05:32:22;15.03;;;9.90;;
70558;SDS011;58108;48.094;11.838;2023-08-24T05:34:48;13.00;;;9.70;;
70558;SDS011;58108;48.094;11.838;2023-08-24T05:37:13;15.13;;;10.47;;
70558;SDS011;58108;48.094;11.838;2023-08-24T05:39:38;14.33;;;10.20;;
70558;SDS011;58108;48.094;11.838;2023-08-24T05:42:04;17.30;;;11.17;;
70558;SDS011;58108;48.094;11.838;2023-08-24T05:44:29;16.23;;;11.30;;
70558;SDS011;58108;48.094;11.838;2023-08-24T05:46:54;18.13;;;11.80;;
70558;SDS011;58108;48.094;11.838;2023-08-24T05:49:19;14.97;;;11.13;;
70558;SDS011;58108;48.094;11.838;2023-08-24T05:51:44;15.40;;;11.00;;
70558;SDS011;58108;48.094;11.838;2023-08-24T05:54:10;15.53;;;11.07;;
70558;SDS011;58108;48.094;11.838;2023-08-24T05:56:35;16.90;;;10.80;;
70558;SDS011;58108;48.094;11.838;2023-08-24T05:59:00;17.10;;;11.17;;
70558;SDS011;58108;48.094;11.838;2023-08-24T06:01:26;15.57;;;10.13;;
70558;SDS011;58108;48.094;11.838;2023-08-24T06:03:51;15.37;;;10.50;;
70558;SDS011;58108;48.094;11.838;2023-08-24T06:06:16;14.03;;;10.30;;
70558;SDS011;58108;48.094;11.838;2023-08-24T06:08:42;15.30;;;10.60;;
70558;SDS011;58108;48.094;11.838;2023-08-24T06:11:07;13.37;;;10.13;;
70558;SDS011;58108;48.094;11.838;2023-08-24T06:13:32;14.07;;;9.97;;
70558;SDS011;58108;48.094;11.838;2023-08-24T06:15:58;14.40;;;9.93;;
70558;SDS011;58108;48.094;11.838;2023-08-24T06:18:23;14.60;;;9.70;;
70558;SDS011;58108;48.094;11.838;2023-08-24T06:20:48;15.50;;;10.20;;
70558;SDS011;58108;48.094;11.838;2023-08-24T06:23:16;14.45;;;9.77;;
70558;SDS011;58108;48.094;11.838;2023-08-24T06:25:42;14.67;;;10.20;;
70558;SDS011;58108;48.094;11.838;2023-08-24T06:28:08;14.40;;;9.93;;
70558;SDS011;58108;48.094;11.838;2023-08-24T06:30:36;13.47;;;9.13;;
70558;SDS011;58108;48.094;11.838;2023-08-24T06:33:03;12.80;;;9.00;;
70558;SDS011;58108;48.094;11.838;2023-08-24T06:35:29;12.23;;;9.07;;
70558;SDS011;58108;48.094;11.838;2023-08-24T06:37:54;13.53;;;9.23;;
70558;SDS011;58108;48.094;11.838;2023-08-24T06:40:19;13.70;;;9.50;;
70558;SDS011;58108;48.094;11.838;2023-08-24T06:42:44;13.27;;;9.20;;
70558;SDS011;58108;48.094;11.838;2023-08-24T06:45:09;12.17;;;9.23;;
70558;SDS011;58108;48.094;11.838;2023-08-24T06:47:35;14.18;;;8.85;;
70558;SDS011;58108;48.094;11.838;2023-08-24T06:50:00;13.17;;;9.13;;
70558;SDS011;58108;48.094;11.838;2023-08-24T06:52:26;12.37;;;9.00;;
70558;SDS011;58108;48.094;11.838;2023-08-24T06:54:51;15.17;;;8.97;;
70558;SDS011;58108;48.094;11.838;2023-08-24T06:57:18;14.20;;;8.95;;
70558;SDS011;58108;48.094;11.838;2023-08-24T06:59:43;13.73;;;8.83;;
70558;SDS011;58108;48.094;11.838;2023-08-24T07:02:08;12.50;;;9.00;;
70558;SDS011;58108;48.094;11.838;2023-08-24T07:04:34;12.90;;;9.20;;
70558;SDS011;58108;48.094;11.838;2023-08-24T07:06:59;14.03;;;9.17;;
70558;SDS011;58108;48.094;11.838;2023-08-24T07:09:24;11.37;;;8.40;;
70558;SDS011;58108;48.094;11.838;2023-08-24T07:11:50;12.50;;;8.93;;
70558;SDS011;58108;48.094;11.838;2023-08-24T07:14:15;13.53;;;8.43;;
70558;SDS011;58108;48.094;11.838;2023-08-24T07:16:40;12.00;;;8.70;;
70558;SDS011;58108;48.094;11.838;2023-08-24T07:19:05;12.03;;;8.83;;
70558;SDS011;58108;48.094;11.838;2023-08-24T07:21:30;12.33;;;8.83;;
70558;SDS011;58108;48.094;11.838;2023-08-24T07:23:56;11.77;;;8.53;;
70558;SDS011;58108;48.094;11.838;2023-08-24T07:26:22;14.18;;;8.98;;
70558;SDS011;58108;48.094;11.838;2023-08-24T07:28:47;13.97;;;9.20;;
70558;SDS011;58108;48.094;11.838;2023-08-24T07:31:12;14.97;;;9.10;;
70558;SDS011;58108;48.094;11.838;2023-08-24T07:33:38;12.50;;;9.13;;
70558;SDS011;58108;48.094;11.838;2023-08-24T07:36:06;12.80;;;8.30;;
70558;SDS011;58108;48.094;11.838;2023-08-24T07:38:31;14.00;;;8.87;;
70558;SDS011;58108;48.094;11.838;2023-08-24T07:40:57;17.47;;;8.90;;
70558;SDS011;58108;48.094;11.838;2023-08-24T07:43:22;12.77;;;8.68;;
70558;SDS011;58108;48.094;11.838;2023-08-24T07:45:47;13.27;;;8.67;;
70558;SDS011;58108;48.094;11.838;2023-08-24T07:48:12;10.93;;;8.30;;
70558;SDS011;58108;48.094;11.838;2023-08-24T07:50:37;12.00;;;8.30;;
70558;SDS011;58108;48.094;11.838;2023-08-24T07:53:02;13.27;;;8.70;;
70558;SDS011;58108;48.094;11.838;2023-08-24T07:55:28;12.33;;;8.93;;
70558;SDS011;58108;48.094;11.838;2023-08-24T07:57:53;13.10;;;8.97;;
70558;SDS011;58108;48.094;11.838;2023-08-24T08:00:18;11.03;;;8.50;;
70558;SDS011;58108;48.094;11.838;2023-08-24T08:02:43;13.07;;;9.27;;
70558;SDS011;58108;48.094;11.838;2023-08-24T08:05:09;10.73;;;8.33;;
70558;SDS011;58108;48.094;11.838;2023-08-24T08:07:37;12.98;;;8.98;;
70558;SDS011;58108;48.094;11.838;2023-08-24T08:10:03;11.40;;;8.50;;
70558;SDS011;58108;48.094;11.838;2023-08-24T08:12:29;12.60;;;8.70;;
70558;SDS011;58108;48.094;11.838;2023-08-24T08:14:57;10.97;;;8.40;;
70558;SDS011;58108;48.094;11.838;2023-08-24T08:17:22;11.93;;;8.63;;
70558;SDS011;58108;48.094;11.838;2023-08-24T08:19:48;11.68;;;8.35;;
70558;SDS011;58108;48.094;11.838;2023-08-24T08:22:13;13.37;;;8.63;;
70558;SDS011;58108;48.094;11.838;2023-08-24T08:24:38;13.10;;;8.77;;
70558;SDS011;58108;48.094;11.838;2023-08-24T08:27:03;10.80;;;8.17;;
70558;SDS011;58108;48.094;11.838;2023-08-24T08:29:28;10.93;;;7.80;;
70558;SDS011;58108;48.094;11.838;2023-08-24T08:31:54;12.00;;;8.15;;
70558;SDS011;58108;48.094;11.838;2023-08-24T08:34:19;11.60;;;7.87;;
70558;SDS011;58108;48.094;11.838;2023-08-24T08:36:45;12.00;;;7.77;;
70558;SDS011;58108;48.094;11.838;2023-08-24T08:39:10;11.10;;;7.70;;
70558;SDS011;58108;48.094;11.838;2023-08-24T08:41:38;10.83;;;7.97;;
70558;SDS011;58108;48.094;11.838;2023-08-24T08:44:06;10.93;;;8.20;;
70558;SDS011;58108;48.094;11.838;2023-08-24T08:46:34;13.13;;;8.23;;
70558;SDS011;58108;48.094;11.838;2023-08-24T08:49:00;10.55;;;7.63;;
70558;SDS011;58108;48.094;11.838;2023-08-24T08:51:25;10.17;;;7.93;;
70558;SDS011;58108;48.094;11.838;2023-08-24T08:53:50;11.37;;;8.27;;
70558;SDS011;58108;48.094;11.838;2023-08-24T08:56:15;10.20;;;7.90;;
70558;SDS011;58108;48.094;11.838;2023-08-24T08:58:41;11.17;;;7.97;;
70558;SDS011;58108;48.094;11.838;2023-08-24T09:01:08;9.88;;;8.20;;
70558;SDS011;58108;48.094;11.838;2023-08-24T09:03:33;13.93;;;8.17;;
70558;SDS011;58108;48.094;11.838;2023-08-24T09:05:59;11.85;;;7.93;;
70558;SDS011;58108;48.094;11.838;2023-08-24T09:08:27;13.20;;;8.47;;
70558;SDS011;58108;48.094;11.838;2023-08-24T09:10:53;12.60;;;7.55;;
70558;SDS011;58108;48.094;11.838;2023-08-24T09:13:18;12.97;;;8.63;;
70558;SDS011;58108;48.094;11.838;2023-08-24T09:15:43;10.47;;;7.90;;
70558;SDS011;58108;48.094;11.838;2023-08-24T09:18:09;11.23;;;8.00;;
70558;SDS011;58108;48.094;11.838;2023-08-24T09:20:34;11.27;;;7.63;;
70558;SDS011;58108;48.094;11.838;2023-08-24T09:22:59;11.80;;;8.20;;
70558;SDS011;58108;48.094;11.838;2023-08-24T09:25:25;11.27;;;7.97;;
70558;SDS011;58108;48.094;11.838;2023-08-24T09:27:57;11.63;;;7.90;;
70558;SDS011;58108;48.094;11.838;2023-08-24T09:30:22;10.50;;;8.20;;
70558;SDS011;58108;48.094;11.838;2023-08-24T09:32:47;12.33;;;8.10;;
70558;SDS011;58108;48.094;11.838;2023-08-24T09:35:12;10.57;;;7.70;;
70558;SDS011;58108;48.094;11.838;2023-08-24T09:37:38;11.37;;;7.93;;
70558;SDS011;58108;48.094;11.838;2023-08-24T09:40:04;11.43;;;8.23;;
70558;SDS011;58108;48.094;11.838;2023-08-24T09:42:40;10.98;;;8.18;;
70558;SDS011;58108;48.094;11.838;2023-08-24T09:45:06;10.77;;;8.23;;
70558;SDS011;58108;48.094;11.838;2023-08-24T09:47:31;11.60;;;7.90;;
70558;SDS011;58108;48.094;11.838;2023-08-24T09:49:56;11.23;;;8.00;;
70558;SDS011;58108;48.094;11.838;2023-08-24T09:52:22;10.87;;;7.83;;
70558;SDS011;58108;48.094;11.838;2023-08-24T09:54:48;10.57;;;8.18;;
70558;SDS011;58108;48.094;11.838;2023-08-24T09:57:15;10.97;;;7.03;;
70558;SDS011;58108;48.094;11.838;2023-08-24T09:59:41;11.38;;;7.88;;
70558;SDS011;58108;48.094;11.838;2023-08-24T10:02:11;9.43;;;7.50;;
70558;SDS011;58108;48.094;11.838;2023-08-24T10:04:39;10.70;;;7.60;;
70558;SDS011;58108;48.094;11.838;2023-08-24T10:07:06;12.15;;;8.02;;
70558;SDS011;58108;48.094;11.838;2023-08-24T10:09:38;12.30;;;7.53;;
70558;SDS011;58108;48.094;11.838;2023-08-24T10:12:04;10.77;;;7.40;;
70558;SDS011;58108;48.094;11.838;2023-08-24T10:14:32;9.43;;;6.70;;
70558;SDS011;58108;48.094;11.838;2023-08-24T10:16:59;10.10;;;7.40;;
70558;SDS011;58108;48.094;11.838;2023-08-24T10:19:25;12.05;;;7.55;;
70558;SDS011;58108;48.094;11.838;2023-08-24T10:21:51;11.70;;;7.50;;
70558;SDS011;58108;48.094;11.838;2023-08-24T10:24:18;10.70;;;7.88;;
70558;SDS011;58108;48.094;11.838;2023-08-24T10:26:45;10.13;;;7.38;;
70558;SDS011;58108;48.094;11.838;2023-08-24T10:29:11;10.33;;;7.30;;
70558;SDS011;58108;48.094;11.838;2023-08-24T10:31:36;8.23;;;7.30;;
70558;SDS011;58108;48.094;11.838;2023-08-24T10:34:03;12.37;;;7.57;;
70558;SDS011;58108;48.094;11.838;2023-08-24T10:36:30;9.63;;;7.80;;
70558;SDS011;58108;48.094;11.838;2023-08-24T10:38:55;10.35;;;6.90;;
70558;SDS011;58108;48.094;11.838;2023-08-24T10:41:25;11.70;;;7.68;;
70558;SDS011;58108;48.094;11.838;2023-08-24T10:43:51;12.07;;;8.63;;
70558;SDS011;58108;48.094;11.838;2023-08-24T10:46:16;14.07;;;9.87;;
70558;SDS011;58108;48.094;11.838;2023-08-24T10:53:38;8.73;;;6.90;;
70558;SDS011;58108;48.094;11.838;2023-08-24T10:56:13;10.02;;;7.13;;
70558;SDS011;58108;48.094;11.838;2023-08-24T10:58:39;9.23;;;7.70;;
70558;SDS011;58108;48.094;11.838;2023-08-24T11:01:04;11.23;;;7.30;;
70558;SDS011;58108;48.094;11.838;2023-08-24T11:03:32;10.10;;;7.77;;
70558;SDS011;58108;48.094;11.838;2023-08-24T11:05:58;10.20;;;7.35;;
70558;SDS011;58108;48.094;11.838;2023-08-24T11:08:43;8.80;;;6.97;;
70558;SDS011;58108;48.094;11.838;2023-08-24T11:11:17;10.35;;;7.68;;
70558;SDS011;58108;48.094;11.838;2023-08-24T11:14:12;12.50;;;8.00;;
70558;SDS011;58108;48.094;11.838;2023-08-24T11:16:44;9.70;;;7.32;;
70558;SDS011;58108;48.094;11.838;2023-08-24T11:19:10;9.63;;;7.45;;
70558;SDS011;58108;48.094;11.838;2023-08-24T11:21:36;11.07;;;9.20;;
70558;SDS011;58108;48.094;11.838;2023-08-24T11:24:03;12.63;;;8.38;;
70558;SDS011;58108;48.094;11.838;2023-08-24T11:26:29;10.00;;;7.40;;
70558;SDS011;58108;48.094;11.838;2023-08-24T11:28:55;12.43;;;7.80;;
70558;SDS011;58108;48.094;11.838;2023-08-24T11:31:22;9.98;;;7.40;;
70558;SDS011;58108;48.094;11.838;2023-08-24T11:33:48;9.27;;;7.50;;
70558;SDS011;58108;48.094;11.838;2023-08-24T11:36:13;8.93;;;6.50;;
70558;SDS011;58108;48.094;11.838;2023-08-24T11:38:42;9.87;;;6.80;;
70558;SDS011;58108;48.094;11.838;2023-08-24T11:41:14;7.60;;;6.45;;
70558;SDS011;58108;48.094;11.838;2023-08-24T11:43:39;9.30;;;6.65;;
70558;SDS011;58108;48.094;11.838;2023-08-24T11:46:05;10.77;;;6.20;;
70558;SDS011;58108;48.094;11.838;2023-08-24T11:48:30;11.40;;;6.37;;
70558;SDS011;58108;48.094;11.838;2023-08-24T11:50:57;9.85;;;6.30;;
70558;SDS011;58108;48.094;11.838;2023-08-24T11:53:22;10.40;;;6.50;;
70558;SDS011;58108;48.094;11.838;2023-08-24T11:55:49;8.38;;;6.60;;
70558;SDS011;58108;48.094;11.838;2023-08-24T11:58:15;10.03;;;6.17;;
70558;SDS011;58108;48.094;11.838;2023-08-24T12:00:41;8.38;;;6.20;;
70558;SDS011;58108;48.094;11.838;2023-08-24T12:03:06;8.93;;;6.20;;
70558;SDS011;58108;48.094;11.838;2023-08-24T12:05:31;7.47;;;6.27;;
70558;SDS011;58108;48.094;11.838;2023-08-24T12:07:57;9.17;;;5.90;;
70558;SDS011;58108;48.094;11.838;2023-08-24T12:10:22;7.60;;;5.63;;
70558;SDS011;58108;48.094;11.838;2023-08-24T12:12:47;7.83;;;5.90;;
70558;SDS011;58108;48.094;11.838;2023-08-24T12:15:19;8.50;;;6.73;;
70558;SDS011;58108;48.094;11.838;2023-08-24T12:17:47;7.50;;;6.07;;
70558;SDS011;58108;48.094;11.838;2023-08-24T12:20:20;8.80;;;6.90;;
70558;SDS011;58108;48.094;11.838;2023-08-24T12:22:53;9.60;;;6.30;;
70558;SDS011;58108;48.094;11.838;2023-08-24T12:25:22;8.13;;;6.70;;
70558;SDS011;58108;48.094;11.838;2023-08-24T12:27:48;7.85;;;6.15;;
70558;SDS011;58108;48.094;11.838;2023-08-24T12:30:13;7.67;;;6.87;;
70558;SDS011;58108;48.094;11.838;2023-08-24T12:32:42;8.97;;;6.53;;
70558;SDS011;58108;48.094;11.838;2023-08-24T12:35:08;7.82;;;6.57;;
70558;SDS011;58108;48.094;11.838;2023-08-24T12:37:34;7.97;;;6.43;;
70558;SDS011;58108;48.094;11.838;2023-08-24T12:40:01;7.83;;;6.27;;
70558;SDS011;58108;48.094;11.838;2023-08-24T12:42:26;7.20;;;6.50;;
70558;SDS011;58108;48.094;11.838;2023-08-24T12:44:51;12.43;;;6.60;;
70558;SDS011;58108;48.094;11.838;2023-08-24T12:47:16;8.03;;;6.80;;
70558;SDS011;58108;48.094;11.838;2023-08-24T12:49:41;7.93;;;6.57;;
70558;SDS011;58108;48.094;11.838;2023-08-24T12:52:06;8.27;;;6.30;;
70558;SDS011;58108;48.094;11.838;2023-08-24T12:54:32;8.57;;;6.45;;
70558;SDS011;58108;48.094;11.838;2023-08-24T12:56:57;8.07;;;6.70;;
70558;SDS011;58108;48.094;11.838;2023-08-24T12:59:23;8.90;;;6.87;;
70558;SDS011;58108;48.094;11.838;2023-08-24T13:01:48;7.90;;;6.33;;
70558;SDS011;58108;48.094;11.838;2023-08-24T13:04:13;13.27;;;6.73;;
70558;SDS011;58108;48.094;11.838;2023-08-24T13:06:38;13.93;;;7.57;;
70558;SDS011;58108;48.094;11.838;2023-08-24T13:09:03;9.70;;;6.40;;
70558;SDS011;58108;48.094;11.838;2023-08-24T13:11:28;7.77;;;6.87;;
70558;SDS011;58108;48.094;11.838;2023-08-24T13:13:54;12.70;;;7.40;;
70558;SDS011;58108;48.094;11.838;2023-08-24T13:16:19;8.57;;;6.30;;
70558;SDS011;58108;48.094;11.838;2023-08-24T13:18:44;7.73;;;6.60;;
70558;SDS011;58108;48.094;11.838;2023-08-24T13:21:09;15.80;;;6.40;;
70558;SDS011;58108;48.094;11.838;2023-08-24T13:23:34;17.07;;;6.93;;
70558;SDS011;58108;48.094;11.838;2023-08-24T13:26:00;9.73;;;5.47;;
70558;SDS011;58108;48.094;11.838;2023-08-24T13:28:25;8.53;;;6.43;;
70558;SDS011;58108;48.094;11.838;2023-08-24T13:30:51;7.70;;;6.10;;
70558;SDS011;58108;48.094;11.838;2023-08-24T13:33:16;9.30;;;6.40;;
70558;SDS011;58108;48.094;11.838;2023-08-24T13:35:43;9.93;;;6.60;;
70558;SDS011;58108;48.094;11.838;2023-08-24T13:38:08;8.47;;;6.43;;
70558;SDS011;58108;48.094;11.838;2023-08-24T13:40:33;8.83;;;6.70;;
70558;SDS011;58108;48.094;11.838;2023-08-24T13:42:59;8.70;;;6.47;;
70558;SDS011;58108;48.094;11.838;2023-08-24T13:45:24;8.30;;;7.00;;
70558;SDS011;58108;48.094;11.838;2023-08-24T13:47:49;28.90;;;7.60;;
70558;SDS011;58108;48.094;11.838;2023-08-24T13:50:15;16.60;;;6.70;;
70558;SDS011;58108;48.094;11.838;2023-08-24T13:52:40;14.77;;;7.30;;
70558;SDS011;58108;48.094;11.838;2023-08-24T13:55:05;12.97;;;7.47;;
70558;SDS011;58108;48.094;11.838;2023-08-24T13:57:30;33.40;;;7.83;;
70558;SDS011;58108;48.094;11.838;2023-08-24T13:59:56;12.50;;;7.40;;
70558;SDS011;58108;48.094;11.838;2023-08-24T14:02:21;8.87;;;6.47;;
70558;SDS011;58108;48.094;11.838;2023-08-24T14:04:46;8.85;;;6.70;;
70558;SDS011;58108;48.094;11.838;2023-08-24T14:07:11;11.10;;;7.03;;
70558;SDS011;58108;48.094;11.838;2023-08-24T14:09:36;10.00;;;6.37;;
70558;SDS011;58108;48.094;11.838;2023-08-24T14:12:02;8.77;;;6.13;;
70558;SDS011;58108;48.094;11.838;2023-08-24T14:14:27;9.80;;;6.00;;
70558;SDS011;58108;48.094;11.838;2023-08-24T14:16:55;8.63;;;5.63;;
70558;SDS011;58108;48.094;11.838;2023-08-24T14:19:21;11.53;;;6.00;;
70558;SDS011;58108;48.094;11.838;2023-08-24T14:21:46;8.10;;;6.18;;
70558;SDS011;58108;48.094;11.838;2023-08-24T14:24:11;8.30;;;5.87;;
70558;SDS011;58108;48.094;11.838;2023-08-24T14:26:36;11.73;;;7.03;;
70558;SDS011;58108;48.094;11.838;2023-08-24T14:29:04;13.32;;;6.05;;
70558;SDS011;58108;48.094;11.838;2023-08-24T14:31:29;9.83;;;6.57;;